Alkor — DBND — position and weather

sailwx.info

Track history (hours):
 
Tides and Currents Weather Stations Pressure Air Temp Water Temp Dewpoint Dewpoint Depression Visibility Wind Speed Wind Dir Waves Ship Positions

Oceanographic research ship Alkor (Germany)

Ship's website: http://www.briese.de/

Detailed information on ship capabilities available from University of Delaware's Ocean Information Center.

Last reported at 2019-Jun-26 04:30 UTC. Time now 2019-Jun-26 09:23 UTC.
Position N 54°20' E 010°09'.

Length 55 m; draft 4.2 m.

Type: Ship. MMSI: 211216512.

Date/timePositionNaut miles runAvg speedWind from/ knotsBaromVisibWave heightAir tempDewpointWater temp
2019-Jun-26 04:30N 54°20' E 010°09'3 5.0
2019-Jun-26 04:00N 54°18' E 010°12'3 2.5 230 / 21018.0 22.9 19.4
2019-Jun-26 03:00N 54°20' E 010°09'31130.0
2019-Jun-26 03:00N 54°18' E 010°12'3 2.5 220 / 11018.0 21.4 19.3
2019-Jun-26 02:00N 54°20' E 010°09'31128.1
2019-Jun-26 02:00N 54°18' E 010°12'3 4.2 1018.1 21.5 19.4
2019-Jun-26 01:24N 54°20' E 010°09'0 0.0
2019-Jun-26 01:00N 54°20' E 010°09'3753.3
2019-Jun-26 01:00N 54°18' E 010°12'3 5.0 200 / 21018.1 22.9 19.5
2019-Jun-26 00:30N 54°20' E 010°09'0 0.0
2019-Jun-26 00:00N 54°20' E 010°09'31128.1
2019-Jun-26 00:00N 54°18' E 010°12'3 5.0 050 / 11018.4 22.9 19.3
2019-Jun-25 23:30N 54°20' E 010°09'0 0.0
2019-Jun-25 23:00N 54°20' E 010°09'31128.1
2019-Jun-25 23:00N 54°18' E 010°12'3 5.0 030 / 21018.8 23.7 19.2
2019-Jun-25 22:30N 54°20' E 010°09'0 0.0
2019-Jun-25 22:00N 54°20' E 010°09'31289.2
2019-Jun-25 22:00N 54°18' E 010°12'3 5.1 070 / 21018.9 24.2 19.1
2019-Jun-25 21:30N 54°20' E 010°09'0 0.0
2019-Jun-25 20:00N 54°20' E 010°09'3820.4
2019-Jun-25 20:00N 54°18' E 010°12'3 5.0 060 / 11019.0 26.7 19.5
2019-Jun-25 19:30N 54°20' E 010°09'0 0.0
2019-Jun-25 19:00N 54°20' E 010°09'31128.9
2019-Jun-25 19:00N 54°18' E 010°12'3 5.0 040 / 21018.9 28.4 19.6
2019-Jun-25 18:30N 54°20' E 010°09'3 5.0
2019-Jun-25 18:00N 54°18' E 010°12'352.2 120 / 21018.9 29.9 19.8
2019-Jun-25 17:57N 54°20' E 010°09'0 0.0
2019-Jun-25 17:30N 54°20' E 010°09'3 5.0
2019-Jun-25 17:00N 54°18' E 010°12'0 0.0 140 / 61018.8 30.7 19.9
2019-Jun-25 16:00N 54°18' E 010°12'0 0.0 170 / 91019.1 31.4 19.8
2019-Jun-25 15:00N 54°18' E 010°12'0 0.0 150 / 101019.2 31.2 19.7
2019-Jun-25 14:00N 54°18' E 010°12'1212.5 150 / 121019.4 29.7 20.0
2019-Jun-25 13:00N 54°30' E 010°18'9 9.2 100 / 181020.0 21.0 18.0
2019-Jun-25 12:00N 54°36' E 010°06'9 9.2 100 / 151020.6 20.0 18.1
2019-Jun-25 11:00N 54°42' E 010°18'6 6.0 090 / 151021.0 19.2 18.5
2019-Jun-25 10:00N 54°36' E 010°18'4 8.1 090 / 131021.3 19.0 17.6
2019-Jun-25 09:30N 54°32' E 010°15'2 4.6
2019-Jun-25 09:01N 54°30' E 010°16'184.8
2019-Jun-25 09:00N 54°30' E 010°18'3 6.4 080 / 121021.4 18.7 17.4
2019-Jun-25 08:31N 54°28' E 010°14'0 0.3
2019-Jun-25 08:01N 54°28' E 010°14'2142.4
2019-Jun-25 08:00N 54°30' E 010°12'4 9.0 100 / 121021.4 18.4 16.9
2019-Jun-25 07:31N 54°26' E 010°13'511.0
2019-Jun-25 07:01N 54°21' E 010°10'3169.8
2019-Jun-25 07:00N 54°18' E 010°12'0 0.0 140 / 31021.5 21.2 19.0
2019-Jun-25 06:00N 54°18' E 010°12'0 0.0 070 / 21021.4 20.0 19.5
2019-Jun-25 05:00N 54°18' E 010°12'0 0.0 090 / 41021.7 18.2 19.6
2019-Jun-25 04:00N 54°18' E 010°12'0 0.0 090 / 41021.9 17.2 19.6
2019-Jun-25 03:00N 54°18' E 010°12'0 0.0 110 / 31022.1 17.4 19.6
2019-Jun-25 02:00N 54°18' E 010°12'0 0.0 110 / 41022.4 17.5 19.5
2019-Jun-25 01:00N 54°18' E 010°12'0 0.0 110 / 51022.8 17.9 19.7
2019-Jun-25 00:00N 54°18' E 010°12'0 0.0 120 / 51023.2 18.7 19.7
2019-Jun-24 23:00N 54°18' E 010°12'0 0.0 120 / 71023.2 19.5 19.7
2019-Jun-24 22:00N 54°18' E 010°12'0 0.0 120 / 81023.3 20.4 19.8
2019-Jun-24 21:00N 54°18' E 010°12'0 0.0 100 / 91023.0 20.7 19.8
2019-Jun-24 20:00N 54°18' E 010°12'0 0.0 080 / 101022.8 20.7 19.8
2019-Jun-24 19:00N 54°18' E 010°12'0 0.0 080 / 111023.0 20.9 19.9
2019-Jun-24 18:00N 54°18' E 010°12'0 0.0 080 / 111023.3 21.7 19.8
2019-Jun-24 17:00N 54°18' E 010°12'0 0.0 070 / 141023.6 21.7 19.7
2019-Jun-24 16:00N 54°18' E 010°12'0 0.0 070 / 121023.8 22.0 19.6
2019-Jun-24 15:00N 54°18' E 010°12'6 6.0 050 / 121024.2 21.7 19.3
2019-Jun-24 14:00N 54°24' E 010°12'7 6.9 080 / 141024.7 21.2 18.9
2019-Jun-24 13:00N 54°30' E 010°06'0 0.0 080 / 161025.2 18.9 17.8
2019-Jun-24 12:00N 54°30' E 010°06'3 3.5 080 / 131025.6 18.4 18.0
2019-Jun-24 11:00N 54°30' E 010°00'3 2.7 090 / 161025.7 18.2 18.0
2019-Jun-24 10:00N 54°32' E 010°03'3186.3
2019-Jun-24 10:00N 54°30' E 010°00'3 5.5 090 / 161025.8 17.9 17.8
2019-Jun-24 09:30N 54°32' E 010°03'0 0.2
2019-Jun-24 09:01N 54°32' E 010°03'3171.9
2019-Jun-24 09:00N 54°30' E 010°06'3 6.1 100 / 161026.0 17.7 17.8
2019-Jun-24 08:31N 54°32' E 010°03'0 0.3
2019-Jun-24 08:01N 54°32' E 010°03'3165.7
2019-Jun-24 08:00N 54°30' E 010°06'3 6.1 100 / 171025.8 17.4 17.8
2019-Jun-24 07:29N 54°32' E 010°03'0 0.3
2019-Jun-24 07:01N 54°32' E 010°03'3174.7
2019-Jun-24 07:00N 54°30' E 010°06'2 3.9 100 / 161025.9 17.4 17.7
2019-Jun-24 06:30N 54°32' E 010°05'611.8
2019-Jun-24 06:00N 54°29' E 010°14'1159.1
2019-Jun-24 06:00N 54°30' E 010°12'613.1 110 / 171025.8 17.0 16.7
2019-Jun-24 05:31N 54°24' E 010°12'4 8.1
2019-Jun-24 05:01N 54°20' E 010°11'2110.2
2019-Jun-24 05:00N 54°18' E 010°12'3 5.2 100 / 91025.6 16.2 18.6
2019-Jun-24 04:30N 54°20' E 010°09'3 4.9
2019-Jun-24 04:00N 54°18' E 010°12'3140.9 060 / 51025.5 15.7 18.8
2019-Jun-24 03:58N 54°20' E 010°09'3 2.5
2019-Jun-24 03:00N 54°18' E 010°12'0 0.0 030 / 51025.3 15.4 18.8
2019-Jun-24 02:00N 54°18' E 010°12'3 4.8 040 / 51025.4 15.7 18.9
2019-Jun-24 01:28N 54°20' E 010°09'3 5.2
2019-Jun-24 01:00N 54°18' E 010°12'3143.1 070 / 51025.5 16.4 18.9
2019-Jun-24 00:58N 54°20' E 010°09'0 0.0
2019-Jun-24 00:28N 54°20' E 010°09'3 5.2
2019-Jun-24 00:00N 54°18' E 010°12'3145.2 060 / 51025.2 16.2 18.8
2019-Jun-23 23:58N 54°20' E 010°09'0 0.0
2019-Jun-23 23:28N 54°20' E 010°09'3 5.2
2019-Jun-23 23:00N 54°18' E 010°12'3145.4 030 / 61024.8 16.2 18.7
2019-Jun-23 22:58N 54°20' E 010°09'0 0.0
2019-Jun-23 22:28N 54°20' E 010°09'3 5.2
2019-Jun-23 22:00N 54°18' E 010°12'3143.1 040 / 51024.9 16.7 18.7
2019-Jun-23 21:58N 54°20' E 010°09'0 0.0
2019-Jun-23 21:28N 54°20' E 010°09'3 5.2
2019-Jun-23 21:00N 54°18' E 010°12'3143.1 040 / 61024.5 16.9 18.7
2019-Jun-23 20:58N 54°20' E 010°09'0 0.0
2019-Jun-23 20:28N 54°20' E 010°09'3 5.2
2019-Jun-23 20:00N 54°18' E 010°12'3130.8 060 / 71024.3 17.7 18.8
2019-Jun-23 19:58N 54°20' E 010°09'0 0.0
2019-Jun-23 19:28N 54°20' E 010°09'3 5.2
2019-Jun-23 19:00N 54°18' E 010°12'0 0.0 070 / 91023.9 18.4 18.8
2019-Jun-23 18:00N 54°18' E 010°12'0 0.0 050 / 101023.7 19.2 18.8
2019-Jun-23 17:00N 54°18' E 010°12'0 0.0 040 / 111023.6 19.9 18.7
2019-Jun-23 16:00N 54°18' E 010°12'0 0.0 070 / 91023.6 21.2 18.6
2019-Jun-23 15:00N 54°18' E 010°12'0 0.0 090 / 91023.9 20.9 18.5
2019-Jun-23 14:00N 54°18' E 010°12'0 0.0 070 / 111024.3 20.2 18.5
2019-Jun-23 13:00N 54°18' E 010°12'0 0.0 060 / 111024.6 19.9 18.4
2019-Jun-23 12:00N 54°18' E 010°12'0 0.0 060 / 131024.6 19.7 18.3
2019-Jun-23 11:00N 54°18' E 010°12'0 0.0 060 / 121024.7 19.2 18.1
2019-Jun-23 10:00N 54°18' E 010°12'0 0.0 070 / 71024.8 19.7 17.9
2019-Jun-23 09:00N 54°18' E 010°12'3 4.8 080 / 101024.4 18.7 17.7
2019-Jun-23 08:28N 54°20' E 010°09'3 5.2
2019-Jun-23 08:00N 54°18' E 010°12'3132.7 110 / 71024.7 18.4 17.7
2019-Jun-23 07:58N 54°20' E 010°09'0 0.0
2019-Jun-23 07:28N 54°20' E 010°09'3 5.2
2019-Jun-23 07:00N 54°18' E 010°12'3130.8 120 / 81024.9 17.7 17.6
2019-Jun-23 06:58N 54°20' E 010°09'0 0.0
2019-Jun-23 06:28N 54°20' E 010°09'3 5.2
2019-Jun-23 06:00N 54°18' E 010°12'3143.1 110 / 71024.7 16.7 17.7
2019-Jun-23 05:58N 54°20' E 010°09'0 0.0
2019-Jun-23 05:28N 54°20' E 010°09'3 5.2
2019-Jun-23 05:00N 54°18' E 010°12'3134.6 100 / 31024.6 14.9 17.9
2019-Jun-23 04:58N 54°20' E 010°09'0 0.0
2019-Jun-23 04:28N 54°20' E 010°09'3 5.2
2019-Jun-23 04:00N 54°18' E 010°12'3123.5 1024.7 13.7 18.0
2019-Jun-23 03:58N 54°20' E 010°09'0 0.0
2019-Jun-23 03:28N 54°20' E 010°09'3 5.2
2019-Jun-23 03:00N 54°18' E 010°12'3141.2 1024.6 13.0 18.0
2019-Jun-23 02:58N 54°20' E 010°09'3 2.6
2019-Jun-23 02:00N 54°18' E 010°12'3136.6 020 / 21024.6 12.9 18.0
2019-Jun-23 01:58N 54°20' E 010°09'0 0.0
2019-Jun-23 01:28N 54°20' E 010°09'3 5.2
2019-Jun-23 01:00N 54°18' E 010°12'3121.8 110 / 11024.4 13.0 18.0
2019-Jun-23 00:58N 54°20' E 010°09'0 0.0
2019-Jun-23 00:28N 54°20' E 010°09'3 5.2
2019-Jun-23 00:00N 54°18' E 010°12'3125.2 090 / 31024.3 13.5 18.0
2019-Jun-22 23:58N 54°20' E 010°09'0 0.0
2019-Jun-22 23:28N 54°20' E 010°09'3 5.2
2019-Jun-22 23:00N 54°18' E 010°12'3130.7 1024.4 13.9 17.9
2019-Jun-22 22:58N 54°20' E 010°09'0 0.0
2019-Jun-22 22:28N 54°20' E 010°09'3 5.2
2019-Jun-22 22:00N 54°18' E 010°12'3127.0 110 / 21024.3 14.7 18.0
2019-Jun-22 21:58N 54°20' E 010°09'0 0.0
2019-Jun-22 21:28N 54°20' E 010°09'0 0.0
2019-Jun-22 20:58N 54°20' E 010°09'0 0.0
2019-Jun-22 20:28N 54°20' E 010°09'3 5.2
2019-Jun-22 20:00N 54°18' E 010°12'3132.7 040 / 51023.9 16.2 17.9
2019-Jun-22 19:58N 54°20' E 010°09'0 0.0
2019-Jun-22 19:28N 54°20' E 010°09'3 5.2
2019-Jun-22 19:00N 54°18' E 010°12'3132.6 090 / 81023.7 16.9 17.7
2019-Jun-22 18:58N 54°20' E 010°09'0 0.0
2019-Jun-22 18:28N 54°20' E 010°09'3 5.2
2019-Jun-22 18:00N 54°18' E 010°12'3118.7 060 / 61023.8 17.7 17.6
2019-Jun-22 17:58N 54°20' E 010°09'0 0.0
2019-Jun-22 17:28N 54°20' E 010°09'3 5.2
2019-Jun-22 17:00N 54°18' E 010°12'3127.0 050 / 81024.2 17.5 17.6
2019-Jun-22 16:58N 54°20' E 010°09'0 0.0
2019-Jun-22 16:28N 54°20' E 010°09'3 5.2
2019-Jun-22 16:00N 54°18' E 010°12'3123.5 030 / 91024.4 17.5 17.5
2019-Jun-22 15:58N 54°20' E 010°09'0 0.0
2019-Jun-22 15:28N 54°20' E 010°09'3 5.2
2019-Jun-22 15:00N 54°18' E 010°12'3123.6 020 / 91024.6 17.4 17.4
2019-Jun-22 14:58N 54°20' E 010°09'0 0.0
2019-Jun-22 14:28N 54°20' E 010°09'3 5.2
2019-Jun-22 14:00N 54°18' E 010°12'3123.6 020 / 101024.8 17.7 17.4
2019-Jun-22 13:58N 54°20' E 010°09'3 2.6
2019-Jun-22 13:00N 54°18' E 010°12'3122.0 1025.1 17.2 17.4
2019-Jun-22 12:58N 54°20' E 010°09'3 2.6
2019-Jun-22 12:00N 54°18' E 010°12'0 0.0 030 / 111025.3 16.5 17.4
2019-Jun-22 11:00N 54°18' E 010°12'0 0.0 030 / 121025.3 15.9 17.5
2019-Jun-22 10:00N 54°18' E 010°12'0 0.0 030 / 71025.5 16.2 17.4
2019-Jun-22 09:00N 54°18' E 010°12'0 0.0 030 / 71025.6 15.7 17.2
2019-Jun-22 08:00N 54°18' E 010°12'0 0.0 040 / 71025.4 15.0 17.1
2019-Jun-22 07:00N 54°18' E 010°12'0 0.0 040 / 81025.1 15.2 17.1
2019-Jun-22 06:00N 54°18' E 010°12'0 0.0 010 / 51024.6 15.2 17.2
2019-Jun-22 05:00N 54°18' E 010°12'0 0.0 320 / 21024.4 13.9 17.4
2019-Jun-22 04:00N 54°18' E 010°12'0 0.0 1024.1 12.9 17.4
2019-Jun-22 03:00N 54°18' E 010°12'0 0.0 220 / 31024.0 12.7 17.5
2019-Jun-22 02:00N 54°18' E 010°12'0 0.0 1023.5 12.2 17.5
2019-Jun-22 01:00N 54°18' E 010°12'0 0.0 250 / 21023.3 13.5 17.6
2019-Jun-22 00:00N 54°18' E 010°12'3 4.8 250 / 11023.0 13.9 17.6
2019-Jun-21 23:28N 54°20' E 010°09'3 5.2
2019-Jun-21 23:00N 54°18' E 010°12'0 0.0 240 / 11022.6 14.0 17.5
2019-Jun-21 22:00N 54°18' E 010°12'3114.1 270 / 11021.9 14.5 17.4
2019-Jun-21 21:58N 54°20' E 010°09'0 0.0
2019-Jun-21 21:28N 54°20' E 010°09'3 5.2
2019-Jun-21 21:00N 54°18' E 010°12'3118.8 250 / 21021.4 15.9 17.4
2019-Jun-21 20:58N 54°20' E 010°09'0 0.0
2019-Jun-21 20:28N 54°20' E 010°09'3 5.2
2019-Jun-21 20:00N 54°18' E 010°12'3120.2 290 / 21020.7 16.2 17.4
2019-Jun-21 19:58N 54°20' E 010°09'0 0.0
2019-Jun-21 19:28N 54°20' E 010°09'3 5.2
2019-Jun-21 19:00N 54°18' E 010°12'3117.2 290 / 41019.9 17.0 17.4
2019-Jun-21 18:58N 54°20' E 010°09'0 0.0
2019-Jun-21 18:28N 54°20' E 010°09'3 5.2
2019-Jun-21 18:00N 54°18' E 010°12'3115.6 240 / 41019.5 17.7 17.3
2019-Jun-21 17:58N 54°20' E 010°09'0 0.0
2019-Jun-21 17:28N 54°20' E 010°09'3 5.2
2019-Jun-21 17:00N 54°18' E 010°12'334.7 270 / 31019.1 17.9 17.2
2019-Jun-21 16:55N 54°20' E 010°09'0 0.0
2019-Jun-21 16:28N 54°20' E 010°09'3 5.3
2019-Jun-21 16:00N 54°18' E 010°12'3111.3 270 / 41018.9 17.9 17.2
2019-Jun-21 15:58N 54°20' E 010°09'0 0.0
2019-Jun-21 15:28N 54°20' E 010°09'1 1.5
2019-Jun-21 15:01N 54°20' E 010°10'2134.7
2019-Jun-21 15:00N 54°18' E 010°12'2 3.9 280 / 131018.4 18.0 18.0
2019-Jun-21 14:30N 54°20' E 010°11'0 0.0
2019-Jun-21 14:00N 54°20' E 010°11'2127.0
2019-Jun-21 14:00N 54°18' E 010°12'3 6.4 270 / 111018.1 19.7 18.0
2019-Jun-21 13:30N 54°21' E 010°10'3 6.7
2019-Jun-21 13:00N 54°24' E 010°12'7 6.9 270 / 131017.5 18.9 18.1
2019-Jun-21 12:00N 54°30' E 010°06'22823.2 210 / 31017.4 16.7 17.9
2019-Jun-21 11:59N 54°31' E 010°08'1 1.5
2019-Jun-21 11:30N 54°30' E 010°08'1 1.9
2019-Jun-21 11:00N 54°31' E 010°08'2150.3
2019-Jun-21 11:00N 54°30' E 010°06'2 5.0 280 / 41017.3 16.2 17.8
2019-Jun-21 10:30N 54°32' E 010°09'0 0.5
2019-Jun-21 10:00N 54°32' E 010°10'2178.2
2019-Jun-21 10:00N 54°30' E 010°12'3 5.1 300 / 121017.1 15.0 17.8
2019-Jun-21 09:30N 54°32' E 010°09'1 2.6
2019-Jun-21 09:00N 54°30' E 010°08'193.3
2019-Jun-21 09:00N 54°30' E 010°06'2 4.5 210 / 121016.7 17.0 17.7
2019-Jun-21 08:30N 54°31' E 010°09'2 3.6
2019-Jun-21 08:01N 54°30' E 010°07'148.6
2019-Jun-21 08:00N 54°30' E 010°06'2 4.3 240 / 101016.4 16.9 17.7
2019-Jun-21 07:30N 54°32' E 010°08'2 3.5
2019-Jun-21 07:00N 54°30' E 010°10'179.1
2019-Jun-21 07:00N 54°30' E 010°12'4 8.6 260 / 91016.2 15.7 17.2
2019-Jun-21 06:30N 54°26' E 010°13'510.8
2019-Jun-21 06:00N 54°21' E 010°10'3200.5
2019-Jun-21 06:00N 54°18' E 010°12'3 4.7 250 / 71015.9 16.2 17.5
2019-Jun-21 05:28N 54°20' E 010°09'3 5.3
2019-Jun-21 05:00N 54°18' E 010°12'394.0 230 / 41015.6 14.9 17.4
2019-Jun-21 04:58N 54°20' E 010°09'0 0.0
2019-Jun-21 04:28N 54°20' E 010°09'0 0.0
2019-Jun-21 04:00N 54°20' E 010°09'3161.4
2019-Jun-21 04:00N 54°18' E 010°12'3 5.2 230 / 51015.6 14.0 17.3
2019-Jun-21 03:30N 54°20' E 010°09'3 4.9
2019-Jun-21 03:00N 54°18' E 010°12'3 5.2 240 / 21015.0 14.7 17.3
2019-Jun-21 02:30N 54°20' E 010°09'0 0.0
2019-Jun-21 02:00N 54°20' E 010°09'3161.2
2019-Jun-21 02:00N 54°18' E 010°12'0 0.0 280 / 21014.5 14.9 17.2
2019-Jun-21 01:00N 54°18' E 010°12'3 5.1 280 / 21014.5 15.2 17.2
2019-Jun-21 00:30N 54°20' E 010°09'0 0.0
2019-Jun-21 00:00N 54°20' E 010°09'3161.0
2019-Jun-21 00:00N 54°18' E 010°12'3 5.2 270 / 21014.2 15.7 17.1
2019-Jun-20 23:30N 54°20' E 010°09'0 0.0
2019-Jun-20 23:00N 54°20' E 010°09'3164.4
2019-Jun-20 23:00N 54°18' E 010°12'3 5.1 280 / 21013.9 16.4 17.2
2019-Jun-20 22:30N 54°20' E 010°09'0 0.0
2019-Jun-20 22:00N 54°20' E 010°09'3163.9
2019-Jun-20 22:00N 54°18' E 010°12'3 5.2 250 / 21013.6 17.0 17.2
2019-Jun-20 21:30N 54°20' E 010°09'0 0.0
2019-Jun-20 21:00N 54°20' E 010°09'0 0.0
2019-Jun-20 20:33N 54°20' E 010°09'0 0.0
2019-Jun-20 20:30N 54°20' E 010°09'0 0.0
2019-Jun-20 20:09N 54°20' E 010°09'316.3
2019-Jun-20 20:00N 54°18' E 010°12'3 2.5 270 / 31012.5 17.7 17.1
2019-Jun-20 19:00N 54°20' E 010°09'3167.0
2019-Jun-20 19:00N 54°18' E 010°12'3 6.4 1012.0 18.9 17.0
2019-Jun-20 18:36N 54°20' E 010°09'0 0.0
2019-Jun-20 18:30N 54°20' E 010°09'0 0.0
2019-Jun-20 18:00N 54°20' E 010°09'3167.1
2019-Jun-20 18:00N 54°18' E 010°12'3 5.2 280 / 41011.4 20.2 17.1
2019-Jun-20 17:30N 54°20' E 010°09'0 0.0
2019-Jun-20 17:00N 54°20' E 010°09'3163.9
2019-Jun-20 17:00N 54°18' E 010°12'3 5.2 230 / 71011.0 19.7 17.1
2019-Jun-20 16:30N 54°20' E 010°09'0 0.0
2019-Jun-20 16:00N 54°20' E 010°09'3161.2
2019-Jun-20 16:00N 54°18' E 010°12'3 5.1 240 / 71010.8 20.4 17.1
2019-Jun-20 15:30N 54°20' E 010°09'0 0.0
2019-Jun-20 15:00N 54°20' E 010°09'3161.2
2019-Jun-20 15:00N 54°18' E 010°12'3 5.2 240 / 51010.7 20.9 17.1
2019-Jun-20 14:30N 54°20' E 010°09'2 3.8
2019-Jun-20 14:00N 54°22' E 010°10'3178.3
2019-Jun-20 14:00N 54°24' E 010°12'3 6.0 240 / 141010.3 19.5 17.8
2019-Jun-20 13:30N 54°27' E 010°14'612.1
2019-Jun-20 13:00N 54°29' E 010°23'138.5
2019-Jun-20 13:00N 54°30' E 010°24'611.8 270 / 151010.2 17.9 17.4
2019-Jun-20 12:30N 54°32' E 010°33'612.1
2019-Jun-20 12:00N 54°33' E 010°43'3216.2
2019-Jun-20 12:00N 54°36' E 010°42'714.5 250 / 201009.7 17.5 17.3
2019-Jun-20 11:30N 54°34' E 010°54'5 9.0
2019-Jun-20 11:00N 54°34' E 011°02'2113.5
2019-Jun-20 11:00N 54°36' E 011°00'2 4.0 220 / 121009.4 18.2 17.1
2019-Jun-20 10:30N 54°35' E 011°02'5 9.9
2019-Jun-20 10:00N 54°33' E 011°10'3208.9
2019-Jun-20 10:00N 54°36' E 011°12'816.2 230 / 171009.0 18.9 17.4
2019-Jun-20 09:30N 54°29' E 011°18'612.3
2019-Jun-20 09:00N 54°23' E 011°21'2144.1
2019-Jun-20 09:00N 54°24' E 011°18'714.9 270 / 111008.9 18.4 17.4
2019-Jun-20 08:30N 54°17' E 011°19'5 9.4
2019-Jun-20 08:00N 54°12' E 011°18'1 5.3 230 / 161008.6 18.5 17.2
2019-Jun-20 07:43N 54°13' E 011°17'2 7.4
2019-Jun-20 07:24N 54°12' E 011°14'1 3.3
2019-Jun-20 07:00N 54°11' E 011°12'172.8
2019-Jun-20 07:00N 54°12' E 011°12'4 3.5 230 / 141008.1 19.2 18.3
2019-Jun-20 06:00N 54°12' E 011°06'222.1 220 / 171007.5 18.2 19.0
2019-Jun-20 05:53N 54°11' E 011°10'3 3.5
2019-Jun-20 05:00N 54°13' E 011°14'2170.9
2019-Jun-20 05:00N 54°12' E 011°12'4 3.5 230 / 121007.3 18.2 18.0
2019-Jun-20 04:00N 54°12' E 011°06'312.2 210 / 131007.1 18.0 19.2
2019-Jun-20 03:46N 54°09' E 011°06'5 6.0
2019-Jun-20 03:00N 54°12' E 011°12'1 3.0 210 / 101006.5 18.4 18.4
2019-Jun-20 02:48N 54°12' E 011°11'3 3.8
2019-Jun-20 02:00N 54°15' E 011°15'3214.8
2019-Jun-20 02:00N 54°12' E 011°18'4 7.9 210 / 121006.8 17.9 17.1
2019-Jun-20 01:30N 54°13' E 011°12'3 5.2
2019-Jun-20 01:00N 54°11' E 011°08'2105.6
2019-Jun-20 01:00N 54°12' E 011°06'2 3.8 210 / 141007.4 18.5 19.1
2019-Jun-20 00:30N 54°10' E 011°06'4 8.0
2019-Jun-20 00:00N 54°12' E 011°12'114.0 250 / 71007.6 18.2 18.8
2019-Jun-19 23:54N 54°12' E 011°10'2 5.0
2019-Jun-19 23:30N 54°13' E 011°12'2 3.1
2019-Jun-19 23:00N 54°15' E 011°14'3220.8
2019-Jun-19 23:00N 54°18' E 011°12'510.5 220 / 61007.4 18.2 17.2
2019-Jun-19 22:30N 54°13' E 011°10'3 5.1
2019-Jun-19 22:00N 54°11' E 011°07'183.5
2019-Jun-19 22:00N 54°12' E 011°06'1 2.0 100 / 121006.9 18.4 20.1
2019-Jun-19 21:29N 54°11' E 011°07'3 6.2
2019-Jun-19 21:00N 54°12' E 011°12'2 5.7 100 / 81006.9 18.7 18.9
2019-Jun-19 20:35N 54°14' E 011°13'0 5.2
2019-Jun-19 20:30N 54°15' E 011°13'2 5.0
2019-Jun-19 20:01N 54°16' E 011°17'2138.2
2019-Jun-19 20:00N 54°18' E 011°18'5 9.5 120 / 41007.2 19.4 17.5
2019-Jun-19 19:30N 54°14' E 011°14'3 5.0
2019-Jun-19 19:00N 54°12' E 011°11'158.1
2019-Jun-19 19:00N 54°12' E 011°12'3 5.8 320 / 201005.3 18.9 19.0
2019-Jun-19 18:28N 54°11' E 011°08'2 3.6
2019-Jun-19 18:00N 54°12' E 011°06'3162.2 240 / 241007.3 20.4 19.9
2019-Jun-19 17:58N 54°09' E 011°04'1 2.4
2019-Jun-19 17:28N 54°08' E 011°03'4 8.8
2019-Jun-19 17:00N 54°12' E 011°06'2219.6 070 / 91005.5 24.5 20.5
2019-Jun-19 16:59N 54°10' E 011°06'4 5.1
2019-Jun-19 16:10N 54°13' E 011°11'1 5.1
2019-Jun-19 16:00N 54°13' E 011°12'183.2
2019-Jun-19 16:00N 54°12' E 011°12'4 7.0 110 / 141006.4 21.9 18.2
2019-Jun-19 15:29N 54°15' E 011°15'4 7.2
2019-Jun-19 15:00N 54°18' E 011°12'334.1 100 / 141006.8 22.4 18.1
2019-Jun-19 14:55N 54°16' E 011°13'2 3.3
2019-Jun-19 14:18N 54°15' E 011°10'310.5
2019-Jun-19 14:00N 54°18' E 011°12'3224.8 110 / 141007.2 23.4 18.4
2019-Jun-19 13:59N 54°15' E 011°11'1 1.0
2019-Jun-19 13:18N 54°15' E 011°12'311.0
2019-Jun-19 13:00N 54°18' E 011°12'330.7 130 / 121008.2 22.7 18.4
2019-Jun-19 12:53N 54°15' E 011°12'0 0.8
2019-Jun-19 12:29N 54°15' E 011°13'1 1.8
2019-Jun-19 12:00N 54°14' E 011°14'3213.8
2019-Jun-19 12:00N 54°12' E 011°12'3 5.8 130 / 131008.6 23.9 17.3
2019-Jun-19 11:30N 54°14' E 011°15'3 6.0
2019-Jun-19 11:00N 54°12' E 011°18'3169.8 120 / 111008.9 22.7 16.6
2019-Jun-19 10:58N 54°14' E 011°15'0 0.1
2019-Jun-19 10:09N 54°14' E 011°15'319.4
2019-Jun-19 10:00N 54°12' E 011°18'3244.9 130 / 111009.3 21.7 17.1
2019-Jun-19 09:59N 54°14' E 011°15'0 0.3
2019-Jun-19 09:26N 54°14' E 011°15'4 9.1
2019-Jun-19 09:00N 54°18' E 011°18'349.4 150 / 151009.5 21.7 16.8
2019-Jun-19 08:56N 54°15' E 011°17'0 0.1
2019-Jun-19 08:30N 54°15' E 011°17'4 7.8
2019-Jun-19 08:00N 54°12' E 011°12'160.1 130 / 151009.5 20.4 18.0
2019-Jun-19 07:59N 54°13' E 011°12'5 6.5
2019-Jun-19 07:11N 54°09' E 011°05'1 7.1
2019-Jun-19 07:00N 54°09' E 011°03'4244.2
2019-Jun-19 07:00N 54°12' E 011°06'4 7.9 130 / 61010.1 19.9 18.8
2019-Jun-19 06:30N 54°09' E 011°03'4 7.4
2019-Jun-19 06:00N 54°12' E 011°06'218.5 140 / 101010.1 19.0 18.1
2019-Jun-19 05:51N 54°10' E 011°07'2 5.1
2019-Jun-19 05:29N 54°11' E 011°10'2 3.3
2019-Jun-19 05:00N 54°12' E 011°12'1620.8 150 / 121010.5 18.9 15.7
2019-Jun-19 04:59N 54°13' E 011°13'2 5.1
2019-Jun-19 04:30N 54°14' E 011°16'1 2.2
2019-Jun-19 04:00N 54°13' E 011°15'2153.0
2019-Jun-19 04:00N 54°12' E 011°18'4 7.4 110 / 71010.9 18.2 15.8
2019-Jun-19 03:30N 54°12' E 011°12'2 4.7
2019-Jun-19 03:00N 54°10' E 011°09'2203.9
2019-Jun-19 03:00N 54°12' E 011°12'4 4.3 110 / 101011.0 19.2 17.8
2019-Jun-19 02:00N 54°09' E 011°07'3452.3
2019-Jun-19 02:00N 54°12' E 011°06'3 5.9 100 / 111011.3 18.7 17.9
2019-Jun-19 01:30N 54°10' E 011°10'2 3.8
2019-Jun-19 01:00N 54°12' E 011°12'1 8.2 090 / 161011.8 18.0 16.2
2019-Jun-19 00:53N 54°12' E 011°13'2 4.5
2019-Jun-19 00:30N 54°14' E 011°16'2 3.9
2019-Jun-19 00:00N 54°15' E 011°18'3170.7
2019-Jun-19 00:00N 54°12' E 011°18'2 3.8 070 / 151012.2 18.9 16.5
2019-Jun-18 23:30N 54°13' E 011°15'2 4.6
2019-Jun-18 23:00N 54°11' E 011°13'140.4
2019-Jun-18 23:00N 54°12' E 011°12'3 4.9 050 / 161012.8 18.9 18.1
2019-Jun-18 22:27N 54°10' E 011°09'4 9.4
2019-Jun-18 22:00N 54°06' E 011°06'270.5 030 / 171013.1 19.9 18.1
2019-Jun-18 21:58N 54°08' E 011°07'1 1.5
2019-Jun-18 21:29N 54°08' E 011°07'510.8
2019-Jun-18 21:00N 54°12' E 011°12'210.4 340 / 151013.7 19.2 18.5
2019-Jun-18 20:48N 54°10' E 011°11'2 5.0
2019-Jun-18 20:19N 54°12' E 011°14'2 6.7
2019-Jun-18 20:00N 54°12' E 011°18'3 5.3 1013.4 19.4 16.0
2019-Jun-18 19:27N 54°15' E 011°20'1 1.7
2019-Jun-18 19:00N 54°14' E 011°19'2138.4
2019-Jun-18 19:00N 54°12' E 011°18'2 2.8 010 / 21012.9 20.9 17.4
2019-Jun-18 18:23N 54°12' E 011°15'2 4.6
2019-Jun-18 18:00N 54°12' E 011°12'232.7 130 / 91012.8 24.2 19.6
2019-Jun-18 17:56N 54°10' E 011°12'6 6.0
2019-Jun-18 17:00N 54°06' E 011°06'2 5.5 150 / 131013.0 25.9 18.7
2019-Jun-18 16:34N 54°07' E 011°03'1 4.8
2019-Jun-18 16:21N 54°08' E 011°02'512.5
2019-Jun-18 16:00N 54°12' E 011°06'4 3.5 130 / 91013.3 23.0 19.8
2019-Jun-18 15:00N 54°12' E 011°12'3 5.4 120 / 111013.9 23.7 18.5
2019-Jun-18 14:28N 54°15' E 011°14'4 8.7
2019-Jun-18 14:00N 54°18' E 011°18'350.9 110 / 121014.6 23.9 16.9
2019-Jun-18 13:56N 54°15' E 011°15'1 1.9
2019-Jun-18 13:27N 54°15' E 011°14'3 6.9
2019-Jun-18 13:00N 54°18' E 011°12'3 4.5 100 / 91015.5 22.4 17.3
2019-Jun-18 12:14N 54°15' E 011°15'414.7
2019-Jun-18 12:00N 54°18' E 011°18'0 0.0 100 / 71016.1 21.4 16.0
2019-Jun-18 11:00N 54°18' E 011°18'5 7.2 150 / 71016.5 21.9 16.0
2019-Jun-18 10:20N 54°14' E 011°14'2 6.4
2019-Jun-18 10:00N 54°12' E 011°12'248.1 140 / 101016.8 21.4 17.6
2019-Jun-18 09:57N 54°11' E 011°08'0 0.1
2019-Jun-18 09:30N 54°11' E 011°08'510.4
2019-Jun-18 09:00N 54°06' E 011°06'322.6 150 / 81017.0 20.4 17.5
2019-Jun-18 08:52N 54°09' E 011°04'1 1.9
2019-Jun-18 08:29N 54°09' E 011°05'510.5
2019-Jun-18 08:00N 54°12' E 011°12'2 3.1 160 / 151017.4 19.0 17.5
2019-Jun-18 07:22N 54°13' E 011°14'2 5.5
2019-Jun-18 07:00N 54°14' E 011°18'2272.4
2019-Jun-18 07:00N 54°12' E 011°18'2 3.7 160 / 171017.5 18.7 14.7
2019-Jun-18 06:30N 54°14' E 011°18'2 4.6
2019-Jun-18 06:00N 54°12' E 011°15'2184.7
2019-Jun-18 06:00N 54°12' E 011°18'4 7.5 160 / 151017.9 17.9 16.5
2019-Jun-18 05:30N 54°11' E 011°12'1 2.8
2019-Jun-18 05:00N 54°12' E 011°12'610.9 150 / 181017.9 17.7 17.2
2019-Jun-18 04:29N 54°08' E 011°07'611.2
2019-Jun-18 04:00N 54°12' E 011°12'213.0 140 / 181018.0 17.7 17.5
2019-Jun-18 03:48N 54°10' E 011°10'1 4.5
2019-Jun-18 03:30N 54°11' E 011°12'4 7.2
2019-Jun-18 03:00N 54°12' E 011°18'2 3.6 140 / 201018.2 17.9 16.9
2019-Jun-18 02:26N 54°14' E 011°18'1 1.3
2019-Jun-18 02:00N 54°14' E 011°19'3164.3
2019-Jun-18 02:00N 54°12' E 011°18'2 3.1 130 / 131019.0 17.2 14.9
2019-Jun-18 01:30N 54°13' E 011°16'2 4.6
2019-Jun-18 01:00N 54°11' E 011°13'160.2
2019-Jun-18 01:00N 54°12' E 011°12'2 5.1 140 / 151019.2 17.9 17.3
2019-Jun-18 00:30N 54°10' E 011°10'5 8.8
2019-Jun-18 00:00N 54°06' E 011°06'255.9 130 / 171019.4 18.4 16.6
2019-Jun-17 23:57N 54°08' E 011°07'1 1.6
2019-Jun-17 23:30N 54°08' E 011°06'610.9
2019-Jun-17 23:00N 54°12' E 011°12'2 4.3 130 / 151019.6 18.4 17.5
2019-Jun-17 22:37N 54°10' E 011°11'4 6.8
2019-Jun-17 22:00N 54°12' E 011°18'2 6.0 120 / 151019.8 18.4 17.6
2019-Jun-17 21:43N 54°13' E 011°16'0 4.6
2019-Jun-17 21:37N 54°14' E 011°17'1 4.6
2019-Jun-17 21:21N 54°15' E 011°18'1 3.0
2019-Jun-17 20:59N 54°14' E 011°17'2 4.6
2019-Jun-17 20:30N 54°12' E 011°14'1 2.7
2019-Jun-17 20:00N 54°12' E 011°12'3 7.3 090 / 151019.9 18.5 16.9
2019-Jun-17 19:31N 54°09' E 011°09'3 6.6
2019-Jun-17 19:00N 54°06' E 011°06'7 7.0 080 / 171019.9 19.0 17.9
2019-Jun-17 18:00N 54°12' E 011°12'4 3.5 090 / 141020.3 18.7 17.0
2019-Jun-17 17:00N 54°12' E 011°18'0 0.0 100 / 141020.7 18.4 16.1
2019-Jun-17 16:00N 54°12' E 011°18'4 3.5 090 / 151021.0 18.4 18.2
2019-Jun-17 15:00N 54°12' E 011°12'7 7.0 090 / 131021.5 19.2 18.2
2019-Jun-17 14:00N 54°06' E 011°06'6 6.0 130 / 101021.7 20.4 18.4
2019-Jun-17 13:00N 54°12' E 011°06'4 3.5 130 / 121021.9 18.9 18.0
2019-Jun-17 12:00N 54°12' E 011°12'7 6.9 130 / 101022.2 18.7 16.8
2019-Jun-17 11:00N 54°18' E 011°18'1212.0 140 / 111022.5 18.0 15.7
2019-Jun-17 10:00N 54°30' E 011°18'7 6.9 170 / 111022.6 16.4 15.5
2019-Jun-17 09:00N 54°36' E 011°12'3 3.5 190 / 11022.5 20.0 14.6
2019-Jun-17 08:00N 54°36' E 011°06'3 3.5 230 / 101022.5 18.9 15.0
2019-Jun-17 07:00N 54°36' E 011°00'3 3.5 210 / 81022.2 16.9 15.0
2019-Jun-17 06:00N 54°36' E 011°06'1212.0 220 / 91022.0 16.9 15.0
2019-Jun-17 05:00N 54°30' E 011°24'1413.9 260 / 91021.8 15.5 14.9
2019-Jun-17 04:00N 54°18' E 011°36'6 6.0 280 / 81021.7 15.2 15.0
2019-Jun-17 03:00N 54°24' E 011°36'3 3.5 270 / 71021.6 15.2 15.1
2019-Jun-17 02:00N 54°24' E 011°30'7 6.9 280 / 101021.4 15.4 15.2
2019-Jun-17 01:00N 54°30' E 011°24'3 3.5 270 / 91021.0 15.4 15.0
2019-Jun-17 00:00N 54°30' E 011°18'4 8.6 260 / 101020.8 15.9 15.1
2019-Jun-16 23:30N 54°34' E 011°15'2 5.0
2019-Jun-16 23:00N 54°35' E 011°11'161.5
2019-Jun-16 23:00N 54°36' E 011°12'3 6.0 180 / 91020.7 16.2 15.2
2019-Jun-16 22:30N 54°35' E 011°07'3 5.0
2019-Jun-16 22:00N 54°35' E 011°03'2116.1
2019-Jun-16 22:00N 54°36' E 011°00'1 2.5 170 / 111020.9 16.9 15.2
2019-Jun-16 21:30N 54°35' E 010°58'3 5.1
2019-Jun-16 21:00N 54°35' E 010°54'153.1
2019-Jun-16 21:00N 54°36' E 010°54'3 6.4 100 / 61020.7 16.9 15.8
2019-Jun-16 20:30N 54°34' E 010°59'611.7
2019-Jun-16 20:00N 54°33' E 011°09'3221.1
2019-Jun-16 20:00N 54°36' E 011°12'4 7.5 150 / 51020.6 16.7 15.7
2019-Jun-16 19:30N 54°33' E 011°08'2 4.3
2019-Jun-16 19:00N 54°34' E 011°05'2104.2
2019-Jun-16 19:00N 54°36' E 011°06'1 2.1 130 / 111020.2 17.0 15.3
2019-Jun-16 18:30N 54°37' E 011°07'0 0.2
2019-Jun-16 18:00N 54°37' E 011°07'160.1
2019-Jun-16 18:00N 54°36' E 011°06'0 0.4 150 / 111020.3 16.9 16.0
2019-Jun-16 17:30N 54°36' E 011°06'2 3.1
2019-Jun-16 17:00N 54°34' E 011°05'2113.9
2019-Jun-16 17:00N 54°36' E 011°06'3 6.2 110 / 71020.2 18.2 14.4
2019-Jun-16 16:31N 54°33' E 011°05'5 9.7
2019-Jun-16 16:00N 54°33' E 011°13'3164.2
2019-Jun-16 16:00N 54°30' E 011°12'3 6.9 130 / 71020.3 16.9 15.0
2019-Jun-16 15:30N 54°33' E 011°10'2 4.6
2019-Jun-16 15:00N 54°34' E 011°06'2152.4
2019-Jun-16 15:00N 54°36' E 011°06'3 5.9 020 / 11020.4 18.2 15.7
2019-Jun-16 14:30N 54°34' E 011°02'1 1.6
2019-Jun-16 14:00N 54°35' E 011°01'2100.2
2019-Jun-16 14:00N 54°36' E 011°00'3 7.0 1020.8 17.5 14.8
2019-Jun-16 13:30N 54°34' E 011°05'2 4.5
2019-Jun-16 13:00N 54°33' E 011°08'3192.2
2019-Jun-16 13:00N 54°36' E 011°06'5 9.9 300 / 51020.6 17.2 15.3
2019-Jun-16 12:30N 54°33' E 011°12'1 2.1
2019-Jun-16 12:00N 54°33' E 011°11'3194.3
2019-Jun-16 12:00N 54°36' E 011°12'4 7.6 280 / 51020.2 19.9 15.3
2019-Jun-16 11:30N 54°34' E 011°07'2 4.5
2019-Jun-16 11:00N 54°34' E 011°03'2151.3
2019-Jun-16 11:00N 54°36' E 011°06'4 8.4 270 / 71019.7 18.7 14.9
2019-Jun-16 10:30N 54°35' E 010°59'1 1.2
2019-Jun-16 10:00N 54°35' E 010°58'2111.6
2019-Jun-16 10:00N 54°36' E 011°00'2 4.5 250 / 111019.6 15.7 14.6
2019-Jun-16 09:30N 54°34' E 010°57'4 8.0
2019-Jun-16 09:00N 54°34' E 010°51'3177.0
2019-Jun-16 09:00N 54°36' E 010°48'4 7.7 250 / 81019.0 16.2 15.3
2019-Jun-16 08:30N 54°33' E 010°44'4 7.8
2019-Jun-16 08:00N 54°33' E 010°37'3177.7
2019-Jun-16 08:00N 54°30' E 010°36'3 7.2 260 / 81018.7 16.2 15.7
2019-Jun-16 07:30N 54°31' E 010°30'612.3
2019-Jun-16 07:00N 54°29' E 010°21'2143.3
2019-Jun-16 07:00N 54°30' E 010°24'815.6 250 / 61018.6 15.2 14.9
2019-Jun-16 06:30N 54°25' E 010°14'611.1
2019-Jun-16 06:00N 54°20' E 010°10'3174.2
2019-Jun-16 06:00N 54°18' E 010°12'3 5.2 240 / 51018.3 16.0 15.2
2019-Jun-16 05:30N 54°20' E 010°09'0 0.0
2019-Jun-16 05:00N 54°20' E 010°09'3164.1
2019-Jun-16 05:00N 54°18' E 010°12'3 5.2 240 / 51017.6 14.7 15.4
2019-Jun-16 04:30N 54°20' E 010°09'  
Track history (hours):
 
Tides and Currents Weather Stations Pressure Air Temp Water Temp Dewpoint Dewpoint Depression Visibility Wind Speed Wind Dir Waves Ship Positions

Oceanographic research ship Alkor (Germany)

Ship's website: http://www.briese.de/

Detailed information on ship capabilities available from University of Delaware's Ocean Information Center.

Last reported at 2019-Jun-26 04:30 UTC. Time now 2019-Jun-26 09:23 UTC.
Position N 54°20' E 010°09'.

Length 55 m; draft 4.2 m.

Type: Ship. MMSI: 211216512.

Date/timePositionNaut miles runAvg speedWind from/ knotsBaromVisibWave heightAir tempDewpointWater temp
2019-Jun-26 04:30N 54°20' E 010°09'3 5.0
2019-Jun-26 04:00N 54°18' E 010°12'3 2.5 230 / 21018.0 22.9 19.4
2019-Jun-26 03:00N 54°20' E 010°09'31130.0
2019-Jun-26 03:00N 54°18' E 010°12'3 2.5 220 / 11018.0 21.4 19.3
2019-Jun-26 02:00N 54°20' E 010°09'31128.1
2019-Jun-26 02:00N 54°18' E 010°12'3 4.2 1018.1 21.5 19.4
2019-Jun-26 01:24N 54°20' E 010°09'0 0.0
2019-Jun-26 01:00N 54°20' E 010°09'3753.3
2019-Jun-26 01:00N 54°18' E 010°12'3 5.0 200 / 21018.1 22.9 19.5
2019-Jun-26 00:30N 54°20' E 010°09'0 0.0
2019-Jun-26 00:00N 54°20' E 010°09'31128.1
2019-Jun-26 00:00N 54°18' E 010°12'3 5.0 050 / 11018.4 22.9 19.3
2019-Jun-25 23:30N 54°20' E 010°09'0 0.0
2019-Jun-25 23:00N 54°20' E 010°09'31128.1
2019-Jun-25 23:00N 54°18' E 010°12'3 5.0 030 / 21018.8 23.7 19.2
2019-Jun-25 22:30N 54°20' E 010°09'0 0.0
2019-Jun-25 22:00N 54°20' E 010°09'31289.2
2019-Jun-25 22:00N 54°18' E 010°12'3 5.1 070 / 21018.9 24.2 19.1
2019-Jun-25 21:30N 54°20' E 010°09'0 0.0
2019-Jun-25 20:00N 54°20' E 010°09'3820.4
2019-Jun-25 20:00N 54°18' E 010°12'3 5.0 060 / 11019.0 26.7 19.5
2019-Jun-25 19:30N 54°20' E 010°09'0 0.0
2019-Jun-25 19:00N 54°20' E 010°09'31128.9
2019-Jun-25 19:00N 54°18' E 010°12'3 5.0 040 / 21018.9 28.4 19.6
2019-Jun-25 18:30N 54°20' E 010°09'3 5.0
2019-Jun-25 18:00N 54°18' E 010°12'352.2 120 / 21018.9 29.9 19.8
2019-Jun-25 17:57N 54°20' E 010°09'0 0.0
2019-Jun-25 17:30N 54°20' E 010°09'3 5.0
2019-Jun-25 17:00N 54°18' E 010°12'0 0.0 140 / 61018.8 30.7 19.9
2019-Jun-25 16:00N 54°18' E 010°12'0 0.0 170 / 91019.1 31.4 19.8
2019-Jun-25 15:00N 54°18' E 010°12'0 0.0 150 / 101019.2 31.2 19.7
2019-Jun-25 14:00N 54°18' E 010°12'1212.5 150 / 121019.4 29.7 20.0
2019-Jun-25 13:00N 54°30' E 010°18'9 9.2 100 / 181020.0 21.0 18.0
2019-Jun-25 12:00N 54°36' E 010°06'9 9.2 100 / 151020.6 20.0 18.1
2019-Jun-25 11:00N 54°42' E 010°18'6 6.0 090 / 151021.0 19.2 18.5
2019-Jun-25 10:00N 54°36' E 010°18'4 8.1 090 / 131021.3 19.0 17.6
2019-Jun-25 09:30N 54°32' E 010°15'2 4.6
2019-Jun-25 09:01N 54°30' E 010°16'184.8
2019-Jun-25 09:00N 54°30' E 010°18'3 6.4 080 / 121021.4 18.7 17.4
2019-Jun-25 08:31N 54°28' E 010°14'0 0.3
2019-Jun-25 08:01N 54°28' E 010°14'2142.4
2019-Jun-25 08:00N 54°30' E 010°12'4 9.0 100 / 121021.4 18.4 16.9
2019-Jun-25 07:31N 54°26' E 010°13'511.0
2019-Jun-25 07:01N 54°21' E 010°10'3169.8
2019-Jun-25 07:00N 54°18' E 010°12'0 0.0 140 / 31021.5 21.2 19.0
2019-Jun-25 06:00N 54°18' E 010°12'0 0.0 070 / 21021.4 20.0 19.5
2019-Jun-25 05:00N 54°18' E 010°12'0 0.0 090 / 41021.7 18.2 19.6
2019-Jun-25 04:00N 54°18' E 010°12'0 0.0 090 / 41021.9 17.2 19.6
2019-Jun-25 03:00N 54°18' E 010°12'0 0.0 110 / 31022.1 17.4 19.6
2019-Jun-25 02:00N 54°18' E 010°12'0 0.0 110 / 41022.4 17.5 19.5
2019-Jun-25 01:00N 54°18' E 010°12'0 0.0 110 / 51022.8 17.9 19.7
2019-Jun-25 00:00N 54°18' E 010°12'0 0.0 120 / 51023.2 18.7 19.7
2019-Jun-24 23:00N 54°18' E 010°12'0 0.0 120 / 71023.2 19.5 19.7
2019-Jun-24 22:00N 54°18' E 010°12'0 0.0 120 / 81023.3 20.4 19.8
2019-Jun-24 21:00N 54°18' E 010°12'0 0.0 100 / 91023.0 20.7 19.8
2019-Jun-24 20:00N 54°18' E 010°12'0 0.0 080 / 101022.8 20.7 19.8
2019-Jun-24 19:00N 54°18' E 010°12'0 0.0 080 / 111023.0 20.9 19.9
2019-Jun-24 18:00N 54°18' E 010°12'0 0.0 080 / 111023.3 21.7 19.8
2019-Jun-24 17:00N 54°18' E 010°12'0 0.0 070 / 141023.6 21.7 19.7
2019-Jun-24 16:00N 54°18' E 010°12'0 0.0 070 / 121023.8 22.0 19.6
2019-Jun-24 15:00N 54°18' E 010°12'6 6.0 050 / 121024.2 21.7 19.3
2019-Jun-24 14:00N 54°24' E 010°12'7 6.9 080 / 141024.7 21.2 18.9
2019-Jun-24 13:00N 54°30' E 010°06'0 0.0 080 / 161025.2 18.9 17.8
2019-Jun-24 12:00N 54°30' E 010°06'3 3.5 080 / 131025.6 18.4 18.0
2019-Jun-24 11:00N 54°30' E 010°00'3 2.7 090 / 161025.7 18.2 18.0
2019-Jun-24 10:00N 54°32' E 010°03'3186.3
2019-Jun-24 10:00N 54°30' E 010°00'3 5.5 090 / 161025.8 17.9 17.8
2019-Jun-24 09:30N 54°32' E 010°03'0 0.2
2019-Jun-24 09:01N 54°32' E 010°03'3171.9
2019-Jun-24 09:00N 54°30' E 010°06'3 6.1 100 / 161026.0 17.7 17.8
2019-Jun-24 08:31N 54°32' E 010°03'0 0.3
2019-Jun-24 08:01N 54°32' E 010°03'3165.7
2019-Jun-24 08:00N 54°30' E 010°06'3 6.1 100 / 171025.8 17.4 17.8
2019-Jun-24 07:29N 54°32' E 010°03'0 0.3
2019-Jun-24 07:01N 54°32' E 010°03'3174.7
2019-Jun-24 07:00N 54°30' E 010°06'2 3.9 100 / 161025.9 17.4 17.7
2019-Jun-24 06:30N 54°32' E 010°05'611.8
2019-Jun-24 06:00N 54°29' E 010°14'1159.1
2019-Jun-24 06:00N 54°30' E 010°12'613.1 110 / 171025.8 17.0 16.7
2019-Jun-24 05:31N 54°24' E 010°12'4 8.1
2019-Jun-24 05:01N 54°20' E 010°11'2110.2
2019-Jun-24 05:00N 54°18' E 010°12'3 5.2 100 / 91025.6 16.2 18.6
2019-Jun-24 04:30N 54°20' E 010°09'3 4.9
2019-Jun-24 04:00N 54°18' E 010°12'3140.9 060 / 51025.5 15.7 18.8
2019-Jun-24 03:58N 54°20' E 010°09'3 2.5
2019-Jun-24 03:00N 54°18' E 010°12'0 0.0 030 / 51025.3 15.4 18.8
2019-Jun-24 02:00N 54°18' E 010°12'3 4.8 040 / 51025.4 15.7 18.9
2019-Jun-24 01:28N 54°20' E 010°09'3 5.2
2019-Jun-24 01:00N 54°18' E 010°12'3143.1 070 / 51025.5 16.4 18.9
2019-Jun-24 00:58N 54°20' E 010°09'0 0.0
2019-Jun-24 00:28N 54°20' E 010°09'3 5.2
2019-Jun-24 00:00N 54°18' E 010°12'3145.2 060 / 51025.2 16.2 18.8
2019-Jun-23 23:58N 54°20' E 010°09'0 0.0
2019-Jun-23 23:28N 54°20' E 010°09'3 5.2
2019-Jun-23 23:00N 54°18' E 010°12'3145.4 030 / 61024.8 16.2 18.7
2019-Jun-23 22:58N 54°20' E 010°09'0 0.0
2019-Jun-23 22:28N 54°20' E 010°09'3 5.2
2019-Jun-23 22:00N 54°18' E 010°12'3143.1 040 / 51024.9 16.7 18.7
2019-Jun-23 21:58N 54°20' E 010°09'0 0.0
2019-Jun-23 21:28N 54°20' E 010°09'3 5.2
2019-Jun-23 21:00N 54°18' E 010°12'3143.1 040 / 61024.5 16.9 18.7
2019-Jun-23 20:58N 54°20' E 010°09'0 0.0
2019-Jun-23 20:28N 54°20' E 010°09'3 5.2
2019-Jun-23 20:00N 54°18' E 010°12'3130.8 060 / 71024.3 17.7 18.8
2019-Jun-23 19:58N 54°20' E 010°09'0 0.0
2019-Jun-23 19:28N 54°20' E 010°09'3 5.2
2019-Jun-23 19:00N 54°18' E 010°12'0 0.0 070 / 91023.9 18.4 18.8
2019-Jun-23 18:00N 54°18' E 010°12'0 0.0 050 / 101023.7 19.2 18.8
2019-Jun-23 17:00N 54°18' E 010°12'0 0.0 040 / 111023.6 19.9 18.7
2019-Jun-23 16:00N 54°18' E 010°12'0 0.0 070 / 91023.6 21.2 18.6
2019-Jun-23 15:00N 54°18' E 010°12'0 0.0 090 / 91023.9 20.9 18.5
2019-Jun-23 14:00N 54°18' E 010°12'0 0.0 070 / 111024.3 20.2 18.5
2019-Jun-23 13:00N 54°18' E 010°12'0 0.0 060 / 111024.6 19.9 18.4
2019-Jun-23 12:00N 54°18' E 010°12'0 0.0 060 / 131024.6 19.7 18.3
2019-Jun-23 11:00N 54°18' E 010°12'0 0.0 060 / 121024.7 19.2 18.1
2019-Jun-23 10:00N 54°18' E 010°12'0 0.0 070 / 71024.8 19.7 17.9
2019-Jun-23 09:00N 54°18' E 010°12'3 4.8 080 / 101024.4 18.7 17.7
2019-Jun-23 08:28N 54°20' E 010°09'3 5.2
2019-Jun-23 08:00N 54°18' E 010°12'3132.7 110 / 71024.7 18.4 17.7
2019-Jun-23 07:58N 54°20' E 010°09'0 0.0
2019-Jun-23 07:28N 54°20' E 010°09'3 5.2
2019-Jun-23 07:00N 54°18' E 010°12'3130.8 120 / 81024.9 17.7 17.6
2019-Jun-23 06:58N 54°20' E 010°09'0 0.0
2019-Jun-23 06:28N 54°20' E 010°09'3 5.2
2019-Jun-23 06:00N 54°18' E 010°12'3143.1 110 / 71024.7 16.7 17.7
2019-Jun-23 05:58N 54°20' E 010°09'0 0.0
2019-Jun-23 05:28N 54°20' E 010°09'3 5.2
2019-Jun-23 05:00N 54°18' E 010°12'3134.6 100 / 31024.6 14.9 17.9
2019-Jun-23 04:58N 54°20' E 010°09'0 0.0
2019-Jun-23 04:28N 54°20' E 010°09'3 5.2
2019-Jun-23 04:00N 54°18' E 010°12'3123.5 1024.7 13.7 18.0
2019-Jun-23 03:58N 54°20' E 010°09'0 0.0
2019-Jun-23 03:28N 54°20' E 010°09'3 5.2
2019-Jun-23 03:00N 54°18' E 010°12'3141.2 1024.6 13.0 18.0
2019-Jun-23 02:58N 54°20' E 010°09'3 2.6
2019-Jun-23 02:00N 54°18' E 010°12'3136.6 020 / 21024.6 12.9 18.0
2019-Jun-23 01:58N 54°20' E 010°09'0 0.0
2019-Jun-23 01:28N 54°20' E 010°09'3 5.2
2019-Jun-23 01:00N 54°18' E 010°12'3121.8 110 / 11024.4 13.0 18.0
2019-Jun-23 00:58N 54°20' E 010°09'0 0.0
2019-Jun-23 00:28N 54°20' E 010°09'3 5.2
2019-Jun-23 00:00N 54°18' E 010°12'3125.2 090 / 31024.3 13.5 18.0
2019-Jun-22 23:58N 54°20' E 010°09'0 0.0
2019-Jun-22 23:28N 54°20' E 010°09'3 5.2
2019-Jun-22 23:00N 54°18' E 010°12'3130.7 1024.4 13.9 17.9
2019-Jun-22 22:58N 54°20' E 010°09'0 0.0
2019-Jun-22 22:28N 54°20' E 010°09'3 5.2
2019-Jun-22 22:00N 54°18' E 010°12'3127.0 110 / 21024.3 14.7 18.0
2019-Jun-22 21:58N 54°20' E 010°09'0 0.0
2019-Jun-22 21:28N 54°20' E 010°09'0 0.0
2019-Jun-22 20:58N 54°20' E 010°09'0 0.0
2019-Jun-22 20:28N 54°20' E 010°09'3 5.2
2019-Jun-22 20:00N 54°18' E 010°12'3132.7 040 / 51023.9 16.2 17.9
2019-Jun-22 19:58N 54°20' E 010°09'0 0.0
2019-Jun-22 19:28N 54°20' E 010°09'3 5.2
2019-Jun-22 19:00N 54°18' E 010°12'3132.6 090 / 81023.7 16.9 17.7
2019-Jun-22 18:58N 54°20' E 010°09'0 0.0
2019-Jun-22 18:28N 54°20' E 010°09'3 5.2
2019-Jun-22 18:00N 54°18' E 010°12'3118.7 060 / 61023.8 17.7 17.6
2019-Jun-22 17:58N 54°20' E 010°09'0 0.0
2019-Jun-22 17:28N 54°20' E 010°09'3 5.2
2019-Jun-22 17:00N 54°18' E 010°12'3127.0 050 / 81024.2 17.5 17.6
2019-Jun-22 16:58N 54°20' E 010°09'0 0.0
2019-Jun-22 16:28N 54°20' E 010°09'3 5.2
2019-Jun-22 16:00N 54°18' E 010°12'3123.5 030 / 91024.4 17.5 17.5
2019-Jun-22 15:58N 54°20' E 010°09'0 0.0
2019-Jun-22 15:28N 54°20' E 010°09'3 5.2
2019-Jun-22 15:00N 54°18' E 010°12'3123.6 020 / 91024.6 17.4 17.4
2019-Jun-22 14:58N 54°20' E 010°09'0 0.0
2019-Jun-22 14:28N 54°20' E 010°09'3 5.2
2019-Jun-22 14:00N 54°18' E 010°12'3123.6 020 / 101024.8 17.7 17.4
2019-Jun-22 13:58N 54°20' E 010°09'3 2.6
2019-Jun-22 13:00N 54°18' E 010°12'3122.0 1025.1 17.2 17.4
2019-Jun-22 12:58N 54°20' E 010°09'3 2.6
2019-Jun-22 12:00N 54°18' E 010°12'0 0.0 030 / 111025.3 16.5 17.4
2019-Jun-22 11:00N 54°18' E 010°12'0 0.0 030 / 121025.3 15.9 17.5
2019-Jun-22 10:00N 54°18' E 010°12'0 0.0 030 / 71025.5 16.2 17.4
2019-Jun-22 09:00N 54°18' E 010°12'0 0.0 030 / 71025.6 15.7 17.2
2019-Jun-22 08:00N 54°18' E 010°12'0 0.0 040 / 71025.4 15.0 17.1
2019-Jun-22 07:00N 54°18' E 010°12'0 0.0 040 / 81025.1 15.2 17.1
2019-Jun-22 06:00N 54°18' E 010°12'0 0.0 010 / 51024.6 15.2 17.2
2019-Jun-22 05:00N 54°18' E 010°12'0 0.0 320 / 21024.4 13.9 17.4
2019-Jun-22 04:00N 54°18' E 010°12'0 0.0 1024.1 12.9 17.4
2019-Jun-22 03:00N 54°18' E 010°12'0 0.0 220 / 31024.0 12.7 17.5
2019-Jun-22 02:00N 54°18' E 010°12'0 0.0 1023.5 12.2 17.5
2019-Jun-22 01:00N 54°18' E 010°12'0 0.0 250 / 21023.3 13.5 17.6
2019-Jun-22 00:00N 54°18' E 010°12'3 4.8 250 / 11023.0 13.9 17.6
2019-Jun-21 23:28N 54°20' E 010°09'3 5.2
2019-Jun-21 23:00N 54°18' E 010°12'0 0.0 240 / 11022.6 14.0 17.5
2019-Jun-21 22:00N 54°18' E 010°12'3114.1 270 / 11021.9 14.5 17.4
2019-Jun-21 21:58N 54°20' E 010°09'0 0.0
2019-Jun-21 21:28N 54°20' E 010°09'3 5.2
2019-Jun-21 21:00N 54°18' E 010°12'3118.8 250 / 21021.4 15.9 17.4
2019-Jun-21 20:58N 54°20' E 010°09'0 0.0
2019-Jun-21 20:28N 54°20' E 010°09'3 5.2
2019-Jun-21 20:00N 54°18' E 010°12'3120.2 290 / 21020.7 16.2 17.4
2019-Jun-21 19:58N 54°20' E 010°09'0 0.0
2019-Jun-21 19:28N 54°20' E 010°09'3 5.2
2019-Jun-21 19:00N 54°18' E 010°12'3117.2 290 / 41019.9 17.0 17.4
2019-Jun-21 18:58N 54°20' E 010°09'0 0.0
2019-Jun-21 18:28N 54°20' E 010°09'3 5.2
2019-Jun-21 18:00N 54°18' E 010°12'3115.6 240 / 41019.5 17.7 17.3
2019-Jun-21 17:58N 54°20' E 010°09'0 0.0
2019-Jun-21 17:28N 54°20' E 010°09'3 5.2
2019-Jun-21 17:00N 54°18' E 010°12'334.7 270 / 31019.1 17.9 17.2
2019-Jun-21 16:55N 54°20' E 010°09'0 0.0
2019-Jun-21 16:28N 54°20' E 010°09'3 5.3
2019-Jun-21 16:00N 54°18' E 010°12'3111.3 270 / 41018.9 17.9 17.2
2019-Jun-21 15:58N 54°20' E 010°09'0 0.0
2019-Jun-21 15:28N 54°20' E 010°09'1 1.5
2019-Jun-21 15:01N 54°20' E 010°10'2134.7
2019-Jun-21 15:00N 54°18' E 010°12'2 3.9 280 / 131018.4 18.0 18.0
2019-Jun-21 14:30N 54°20' E 010°11'0 0.0
2019-Jun-21 14:00N 54°20' E 010°11'2127.0
2019-Jun-21 14:00N 54°18' E 010°12'3 6.4 270 / 111018.1 19.7 18.0
2019-Jun-21 13:30N 54°21' E 010°10'3 6.7
2019-Jun-21 13:00N 54°24' E 010°12'7 6.9 270 / 131017.5 18.9 18.1
2019-Jun-21 12:00N 54°30' E 010°06'22823.2 210 / 31017.4 16.7 17.9
2019-Jun-21 11:59N 54°31' E 010°08'1 1.5
2019-Jun-21 11:30N 54°30' E 010°08'1 1.9
2019-Jun-21 11:00N 54°31' E 010°08'2150.3
2019-Jun-21 11:00N 54°30' E 010°06'2 5.0 280 / 41017.3 16.2 17.8
2019-Jun-21 10:30N 54°32' E 010°09'0 0.5
2019-Jun-21 10:00N 54°32' E 010°10'2178.2
2019-Jun-21 10:00N 54°30' E 010°12'3 5.1 300 / 121017.1 15.0 17.8
2019-Jun-21 09:30N 54°32' E 010°09'1 2.6
2019-Jun-21 09:00N 54°30' E 010°08'193.3
2019-Jun-21 09:00N 54°30' E 010°06'2 4.5 210 / 121016.7 17.0 17.7
2019-Jun-21 08:30N 54°31' E 010°09'2 3.6
2019-Jun-21 08:01N 54°30' E 010°07'148.6
2019-Jun-21 08:00N 54°30' E 010°06'2 4.3 240 / 101016.4 16.9 17.7
2019-Jun-21 07:30N 54°32' E 010°08'2 3.5
2019-Jun-21 07:00N 54°30' E 010°10'179.1
2019-Jun-21 07:00N 54°30' E 010°12'4 8.6 260 / 91016.2 15.7 17.2
2019-Jun-21 06:30N 54°26' E 010°13'510.8
2019-Jun-21 06:00N 54°21' E 010°10'3200.5
2019-Jun-21 06:00N 54°18' E 010°12'3 4.7 250 / 71015.9 16.2 17.5
2019-Jun-21 05:28N 54°20' E 010°09'3 5.3
2019-Jun-21 05:00N 54°18' E 010°12'394.0 230 / 41015.6 14.9 17.4
2019-Jun-21 04:58N 54°20' E 010°09'0 0.0
2019-Jun-21 04:28N 54°20' E 010°09'0 0.0
2019-Jun-21 04:00N 54°20' E 010°09'3161.4
2019-Jun-21 04:00N 54°18' E 010°12'3 5.2 230 / 51015.6 14.0 17.3
2019-Jun-21 03:30N 54°20' E 010°09'3 4.9
2019-Jun-21 03:00N 54°18' E 010°12'3 5.2 240 / 21015.0 14.7 17.3
2019-Jun-21 02:30N 54°20' E 010°09'0 0.0
2019-Jun-21 02:00N 54°20' E 010°09'3161.2
2019-Jun-21 02:00N 54°18' E 010°12'0 0.0 280 / 21014.5 14.9 17.2
2019-Jun-21 01:00N 54°18' E 010°12'3 5.1 280 / 21014.5 15.2 17.2
2019-Jun-21 00:30N 54°20' E 010°09'0 0.0
2019-Jun-21 00:00N 54°20' E 010°09'3161.0
2019-Jun-21 00:00N 54°18' E 010°12'3 5.2 270 / 21014.2 15.7 17.1
2019-Jun-20 23:30N 54°20' E 010°09'0 0.0
2019-Jun-20 23:00N 54°20' E 010°09'3164.4
2019-Jun-20 23:00N 54°18' E 010°12'3 5.1 280 / 21013.9 16.4 17.2
2019-Jun-20 22:30N 54°20' E 010°09'0 0.0
2019-Jun-20 22:00N 54°20' E 010°09'3163.9
2019-Jun-20 22:00N 54°18' E 010°12'3 5.2 250 / 21013.6 17.0 17.2
2019-Jun-20 21:30N 54°20' E 010°09'0 0.0
2019-Jun-20 21:00N 54°20' E 010°09'0 0.0
2019-Jun-20 20:33N 54°20' E 010°09'0 0.0
2019-Jun-20 20:30N 54°20' E 010°09'0 0.0
2019-Jun-20 20:09N 54°20' E 010°09'316.3
2019-Jun-20 20:00N 54°18' E 010°12'3 2.5 270 / 31012.5 17.7 17.1
2019-Jun-20 19:00N 54°20' E 010°09'3167.0
2019-Jun-20 19:00N 54°18' E 010°12'3 6.4 1012.0 18.9 17.0
2019-Jun-20 18:36N 54°20' E 010°09'0 0.0
2019-Jun-20 18:30N 54°20' E 010°09'0 0.0
2019-Jun-20 18:00N 54°20' E 010°09'3167.1
2019-Jun-20 18:00N 54°18' E 010°12'3 5.2 280 / 41011.4 20.2 17.1
2019-Jun-20 17:30N 54°20' E 010°09'0 0.0
2019-Jun-20 17:00N 54°20' E 010°09'3163.9
2019-Jun-20 17:00N 54°18' E 010°12'3 5.2 230 / 71011.0 19.7 17.1
2019-Jun-20 16:30N 54°20' E 010°09'0 0.0
2019-Jun-20 16:00N 54°20' E 010°09'3161.2
2019-Jun-20 16:00N 54°18' E 010°12'3 5.1 240 / 71010.8 20.4 17.1
2019-Jun-20 15:30N 54°20' E 010°09'0 0.0
2019-Jun-20 15:00N 54°20' E 010°09'3161.2
2019-Jun-20 15:00N 54°18' E 010°12'3 5.2 240 / 51010.7 20.9 17.1
2019-Jun-20 14:30N 54°20' E 010°09'2 3.8
2019-Jun-20 14:00N 54°22' E 010°10'3178.3
2019-Jun-20 14:00N 54°24' E 010°12'3 6.0 240 / 141010.3 19.5 17.8
2019-Jun-20 13:30N 54°27' E 010°14'612.1
2019-Jun-20 13:00N 54°29' E 010°23'138.5
2019-Jun-20 13:00N 54°30' E 010°24'611.8 270 / 151010.2 17.9 17.4
2019-Jun-20 12:30N 54°32' E 010°33'612.1
2019-Jun-20 12:00N 54°33' E 010°43'3216.2
2019-Jun-20 12:00N 54°36' E 010°42'714.5 250 / 201009.7 17.5 17.3
2019-Jun-20 11:30N 54°34' E 010°54'5 9.0
2019-Jun-20 11:00N 54°34' E 011°02'2113.5
2019-Jun-20 11:00N 54°36' E 011°00'2 4.0 220 / 121009.4 18.2 17.1
2019-Jun-20 10:30N 54°35' E 011°02'5 9.9
2019-Jun-20 10:00N 54°33' E 011°10'3208.9
2019-Jun-20 10:00N 54°36' E 011°12'816.2 230 / 171009.0 18.9 17.4
2019-Jun-20 09:30N 54°29' E 011°18'612.3
2019-Jun-20 09:00N 54°23' E 011°21'2144.1
2019-Jun-20 09:00N 54°24' E 011°18'714.9 270 / 111008.9 18.4 17.4
2019-Jun-20 08:30N 54°17' E 011°19'5 9.4
2019-Jun-20 08:00N 54°12' E 011°18'1 5.3 230 / 161008.6 18.5 17.2
2019-Jun-20 07:43N 54°13' E 011°17'2 7.4
2019-Jun-20 07:24N 54°12' E 011°14'1 3.3
2019-Jun-20 07:00N 54°11' E 011°12'172.8
2019-Jun-20 07:00N 54°12' E 011°12'4 3.5 230 / 141008.1 19.2 18.3
2019-Jun-20 06:00N 54°12' E 011°06'222.1 220 / 171007.5 18.2 19.0
2019-Jun-20 05:53N 54°11' E 011°10'3 3.5
2019-Jun-20 05:00N 54°13' E 011°14'2170.9
2019-Jun-20 05:00N 54°12' E 011°12'4 3.5 230 / 121007.3 18.2 18.0
2019-Jun-20 04:00N 54°12' E 011°06'312.2 210 / 131007.1 18.0 19.2
2019-Jun-20 03:46N 54°09' E 011°06'5 6.0
2019-Jun-20 03:00N 54°12' E 011°12'1 3.0 210 / 101006.5 18.4 18.4
2019-Jun-20 02:48N 54°12' E 011°11'3 3.8
2019-Jun-20 02:00N 54°15' E 011°15'3214.8
2019-Jun-20 02:00N 54°12' E 011°18'4 7.9 210 / 121006.8 17.9 17.1
2019-Jun-20 01:30N 54°13' E 011°12'3 5.2
2019-Jun-20 01:00N 54°11' E 011°08'2105.6
2019-Jun-20 01:00N 54°12' E 011°06'2 3.8 210 / 141007.4 18.5 19.1
2019-Jun-20 00:30N 54°10' E 011°06'4 8.0
2019-Jun-20 00:00N 54°12' E 011°12'114.0 250 / 71007.6 18.2 18.8
2019-Jun-19 23:54N 54°12' E 011°10'2 5.0
2019-Jun-19 23:30N 54°13' E 011°12'2 3.1
2019-Jun-19 23:00N 54°15' E 011°14'3220.8
2019-Jun-19 23:00N 54°18' E 011°12'510.5 220 / 61007.4 18.2 17.2
2019-Jun-19 22:30N 54°13' E 011°10'3 5.1
2019-Jun-19 22:00N 54°11' E 011°07'183.5
2019-Jun-19 22:00N 54°12' E 011°06'1 2.0 100 / 121006.9 18.4 20.1
2019-Jun-19 21:29N 54°11' E 011°07'3 6.2
2019-Jun-19 21:00N 54°12' E 011°12'2 5.7 100 / 81006.9 18.7 18.9
2019-Jun-19 20:35N 54°14' E 011°13'0 5.2
2019-Jun-19 20:30N 54°15' E 011°13'2 5.0
2019-Jun-19 20:01N 54°16' E 011°17'2138.2
2019-Jun-19 20:00N 54°18' E 011°18'5 9.5 120 / 41007.2 19.4 17.5
2019-Jun-19 19:30N 54°14' E 011°14'3 5.0
2019-Jun-19 19:00N 54°12' E 011°11'158.1
2019-Jun-19 19:00N 54°12' E 011°12'3 5.8 320 / 201005.3 18.9 19.0
2019-Jun-19 18:28N 54°11' E 011°08'2 3.6
2019-Jun-19 18:00N 54°12' E 011°06'3162.2 240 / 241007.3 20.4 19.9
2019-Jun-19 17:58N 54°09' E 011°04'1 2.4
2019-Jun-19 17:28N 54°08' E 011°03'4 8.8
2019-Jun-19 17:00N 54°12' E 011°06'2219.6 070 / 91005.5 24.5 20.5
2019-Jun-19 16:59N 54°10' E 011°06'4 5.1
2019-Jun-19 16:10N 54°13' E 011°11'1 5.1
2019-Jun-19 16:00N 54°13' E 011°12'183.2
2019-Jun-19 16:00N 54°12' E 011°12'4 7.0 110 / 141006.4 21.9 18.2
2019-Jun-19 15:29N 54°15' E 011°15'4 7.2
2019-Jun-19 15:00N 54°18' E 011°12'334.1 100 / 141006.8 22.4 18.1
2019-Jun-19 14:55N 54°16' E 011°13'2 3.3
2019-Jun-19 14:18N 54°15' E 011°10'310.5
2019-Jun-19 14:00N 54°18' E 011°12'3224.8 110 / 141007.2 23.4 18.4
2019-Jun-19 13:59N 54°15' E 011°11'1 1.0
2019-Jun-19 13:18N 54°15' E 011°12'311.0
2019-Jun-19 13:00N 54°18' E 011°12'330.7 130 / 121008.2 22.7 18.4
2019-Jun-19 12:53N 54°15' E 011°12'0 0.8
2019-Jun-19 12:29N 54°15' E 011°13'1 1.8
2019-Jun-19 12:00N 54°14' E 011°14'3213.8
2019-Jun-19 12:00N 54°12' E 011°12'3 5.8 130 / 131008.6 23.9 17.3
2019-Jun-19 11:30N 54°14' E 011°15'3 6.0
2019-Jun-19 11:00N 54°12' E 011°18'3169.8 120 / 111008.9 22.7 16.6
2019-Jun-19 10:58N 54°14' E 011°15'0 0.1
2019-Jun-19 10:09N 54°14' E 011°15'319.4
2019-Jun-19 10:00N 54°12' E 011°18'3244.9 130 / 111009.3 21.7 17.1
2019-Jun-19 09:59N 54°14' E 011°15'0 0.3
2019-Jun-19 09:26N 54°14' E 011°15'4 9.1
2019-Jun-19 09:00N 54°18' E 011°18'349.4 150 / 151009.5 21.7 16.8
2019-Jun-19 08:56N 54°15' E 011°17'0 0.1
2019-Jun-19 08:30N 54°15' E 011°17'4 7.8
2019-Jun-19 08:00N 54°12' E 011°12'160.1 130 / 151009.5 20.4 18.0
2019-Jun-19 07:59N 54°13' E 011°12'5 6.5
2019-Jun-19 07:11N 54°09' E 011°05'1 7.1
2019-Jun-19 07:00N 54°09' E 011°03'4244.2
2019-Jun-19 07:00N 54°12' E 011°06'4 7.9 130 / 61010.1 19.9 18.8
2019-Jun-19 06:30N 54°09' E 011°03'4 7.4
2019-Jun-19 06:00N 54°12' E 011°06'218.5 140 / 101010.1 19.0 18.1
2019-Jun-19 05:51N 54°10' E 011°07'2 5.1
2019-Jun-19 05:29N 54°11' E 011°10'2 3.3
2019-Jun-19 05:00N 54°12' E 011°12'1620.8 150 / 121010.5 18.9 15.7
2019-Jun-19 04:59N 54°13' E 011°13'2 5.1
2019-Jun-19 04:30N 54°14' E 011°16'1 2.2
2019-Jun-19 04:00N 54°13' E 011°15'2153.0
2019-Jun-19 04:00N 54°12' E 011°18'4 7.4 110 / 71010.9 18.2 15.8
2019-Jun-19 03:30N 54°12' E 011°12'2 4.7
2019-Jun-19 03:00N 54°10' E 011°09'2203.9
2019-Jun-19 03:00N 54°12' E 011°12'4 4.3 110 / 101011.0 19.2 17.8
2019-Jun-19 02:00N 54°09' E 011°07'3452.3
2019-Jun-19 02:00N 54°12' E 011°06'3 5.9 100 / 111011.3 18.7 17.9
2019-Jun-19 01:30N 54°10' E 011°10'2 3.8
2019-Jun-19 01:00N 54°12' E 011°12'1 8.2 090 / 161011.8 18.0 16.2
2019-Jun-19 00:53N 54°12' E 011°13'2 4.5
2019-Jun-19 00:30N 54°14' E 011°16'2 3.9
2019-Jun-19 00:00N 54°15' E 011°18'3170.7
2019-Jun-19 00:00N 54°12' E 011°18'2 3.8 070 / 151012.2 18.9 16.5
2019-Jun-18 23:30N 54°13' E 011°15'2 4.6
2019-Jun-18 23:00N 54°11' E 011°13'140.4
2019-Jun-18 23:00N 54°12' E 011°12'3 4.9 050 / 161012.8 18.9 18.1
2019-Jun-18 22:27N 54°10' E 011°09'4 9.4
2019-Jun-18 22:00N 54°06' E 011°06'270.5 030 / 171013.1 19.9 18.1
2019-Jun-18 21:58N 54°08' E 011°07'1 1.5
2019-Jun-18 21:29N 54°08' E 011°07'510.8
2019-Jun-18 21:00N 54°12' E 011°12'210.4 340 / 151013.7 19.2 18.5
2019-Jun-18 20:48N 54°10' E 011°11'2 5.0
2019-Jun-18 20:19N 54°12' E 011°14'2 6.7
2019-Jun-18 20:00N 54°12' E 011°18'3 5.3 1013.4 19.4 16.0
2019-Jun-18 19:27N 54°15' E 011°20'1 1.7
2019-Jun-18 19:00N 54°14' E 011°19'2138.4
2019-Jun-18 19:00N 54°12' E 011°18'2 2.8 010 / 21012.9 20.9 17.4
2019-Jun-18 18:23N 54°12' E 011°15'2 4.6
2019-Jun-18 18:00N 54°12' E 011°12'232.7 130 / 91012.8 24.2 19.6
2019-Jun-18 17:56N 54°10' E 011°12'6 6.0
2019-Jun-18 17:00N 54°06' E 011°06'2 5.5 150 / 131013.0 25.9 18.7
2019-Jun-18 16:34N 54°07' E 011°03'1 4.8
2019-Jun-18 16:21N 54°08' E 011°02'512.5
2019-Jun-18 16:00N 54°12' E 011°06'4 3.5 130 / 91013.3 23.0 19.8
2019-Jun-18 15:00N 54°12' E 011°12'3 5.4 120 / 111013.9 23.7 18.5
2019-Jun-18 14:28N 54°15' E 011°14'4 8.7
2019-Jun-18 14:00N 54°18' E 011°18'350.9 110 / 121014.6 23.9 16.9
2019-Jun-18 13:56N 54°15' E 011°15'1 1.9
2019-Jun-18 13:27N 54°15' E 011°14'3 6.9
2019-Jun-18 13:00N 54°18' E 011°12'3 4.5 100 / 91015.5 22.4 17.3
2019-Jun-18 12:14N 54°15' E 011°15'414.7
2019-Jun-18 12:00N 54°18' E 011°18'0 0.0 100 / 71016.1 21.4 16.0
2019-Jun-18 11:00N 54°18' E 011°18'5 7.2 150 / 71016.5 21.9 16.0
2019-Jun-18 10:20N 54°14' E 011°14'2 6.4
2019-Jun-18 10:00N 54°12' E 011°12'248.1 140 / 101016.8 21.4 17.6
2019-Jun-18 09:57N 54°11' E 011°08'0 0.1
2019-Jun-18 09:30N 54°11' E 011°08'510.4
2019-Jun-18 09:00N 54°06' E 011°06'322.6 150 / 81017.0 20.4 17.5
2019-Jun-18 08:52N 54°09' E 011°04'1 1.9
2019-Jun-18 08:29N 54°09' E 011°05'510.5
2019-Jun-18 08:00N 54°12' E 011°12'2 3.1 160 / 151017.4 19.0 17.5
2019-Jun-18 07:22N 54°13' E 011°14'2 5.5
2019-Jun-18 07:00N 54°14' E 011°18'2272.4
2019-Jun-18 07:00N 54°12' E 011°18'2 3.7 160 / 171017.5 18.7 14.7
2019-Jun-18 06:30N 54°14' E 011°18'2 4.6
2019-Jun-18 06:00N 54°12' E 011°15'2184.7
2019-Jun-18 06:00N 54°12' E 011°18'4 7.5 160 / 151017.9 17.9 16.5
2019-Jun-18 05:30N 54°11' E 011°12'1 2.8
2019-Jun-18 05:00N 54°12' E 011°12'610.9 150 / 181017.9 17.7 17.2
2019-Jun-18 04:29N 54°08' E 011°07'611.2
2019-Jun-18 04:00N 54°12' E 011°12'213.0 140 / 181018.0 17.7 17.5
2019-Jun-18 03:48N 54°10' E 011°10'1 4.5
2019-Jun-18 03:30N 54°11' E 011°12'4 7.2
2019-Jun-18 03:00N 54°12' E 011°18'2 3.6 140 / 201018.2 17.9 16.9
2019-Jun-18 02:26N 54°14' E 011°18'1 1.3
2019-Jun-18 02:00N 54°14' E 011°19'3164.3
2019-Jun-18 02:00N 54°12' E 011°18'2 3.1 130 / 131019.0 17.2 14.9
2019-Jun-18 01:30N 54°13' E 011°16'2 4.6
2019-Jun-18 01:00N 54°11' E 011°13'160.2
2019-Jun-18 01:00N 54°12' E 011°12'2 5.1 140 / 151019.2 17.9 17.3
2019-Jun-18 00:30N 54°10' E 011°10'5 8.8
2019-Jun-18 00:00N 54°06' E 011°06'255.9 130 / 171019.4 18.4 16.6
2019-Jun-17 23:57N 54°08' E 011°07'1 1.6
2019-Jun-17 23:30N 54°08' E 011°06'610.9
2019-Jun-17 23:00N 54°12' E 011°12'2 4.3 130 / 151019.6 18.4 17.5
2019-Jun-17 22:37N 54°10' E 011°11'4 6.8
2019-Jun-17 22:00N 54°12' E 011°18'2 6.0 120 / 151019.8 18.4 17.6
2019-Jun-17 21:43N 54°13' E 011°16'0 4.6
2019-Jun-17 21:37N 54°14' E 011°17'1 4.6
2019-Jun-17 21:21N 54°15' E 011°18'1 3.0
2019-Jun-17 20:59N 54°14' E 011°17'2 4.6
2019-Jun-17 20:30N 54°12' E 011°14'1 2.7
2019-Jun-17 20:00N 54°12' E 011°12'3 7.3 090 / 151019.9 18.5 16.9
2019-Jun-17 19:31N 54°09' E 011°09'3 6.6
2019-Jun-17 19:00N 54°06' E 011°06'7 7.0 080 / 171019.9 19.0 17.9
2019-Jun-17 18:00N 54°12' E 011°12'4 3.5 090 / 141020.3 18.7 17.0
2019-Jun-17 17:00N 54°12' E 011°18'0 0.0 100 / 141020.7 18.4 16.1
2019-Jun-17 16:00N 54°12' E 011°18'4 3.5 090 / 151021.0 18.4 18.2
2019-Jun-17 15:00N 54°12' E 011°12'7 7.0 090 / 131021.5 19.2 18.2
2019-Jun-17 14:00N 54°06' E 011°06'6 6.0 130 / 101021.7 20.4 18.4
2019-Jun-17 13:00N 54°12' E 011°06'4 3.5 130 / 121021.9 18.9 18.0
2019-Jun-17 12:00N 54°12' E 011°12'7 6.9 130 / 101022.2 18.7 16.8
2019-Jun-17 11:00N 54°18' E 011°18'1212.0 140 / 111022.5 18.0 15.7
2019-Jun-17 10:00N 54°30' E 011°18'7 6.9 170 / 111022.6 16.4 15.5
2019-Jun-17 09:00N 54°36' E 011°12'3 3.5 190 / 11022.5 20.0 14.6
2019-Jun-17 08:00N 54°36' E 011°06'3 3.5 230 / 101022.5 18.9 15.0
2019-Jun-17 07:00N 54°36' E 011°00'3 3.5 210 / 81022.2 16.9 15.0
2019-Jun-17 06:00N 54°36' E 011°06'1212.0 220 / 91022.0 16.9 15.0
2019-Jun-17 05:00N 54°30' E 011°24'1413.9 260 / 91021.8 15.5 14.9
2019-Jun-17 04:00N 54°18' E 011°36'6 6.0 280 / 81021.7 15.2 15.0
2019-Jun-17 03:00N 54°24' E 011°36'3 3.5 270 / 71021.6 15.2 15.1
2019-Jun-17 02:00N 54°24' E 011°30'7 6.9 280 / 101021.4 15.4 15.2
2019-Jun-17 01:00N 54°30' E 011°24'3 3.5 270 / 91021.0 15.4 15.0
2019-Jun-17 00:00N 54°30' E 011°18'4 8.6 260 / 101020.8 15.9 15.1
2019-Jun-16 23:30N 54°34' E 011°15'2 5.0
2019-Jun-16 23:00N 54°35' E 011°11'161.5
2019-Jun-16 23:00N 54°36' E 011°12'3 6.0 180 / 91020.7 16.2 15.2
2019-Jun-16 22:30N 54°35' E 011°07'3 5.0
2019-Jun-16 22:00N 54°35' E 011°03'2116.1
2019-Jun-16 22:00N 54°36' E 011°00'1 2.5 170 / 111020.9 16.9 15.2
2019-Jun-16 21:30N 54°35' E 010°58'3 5.1
2019-Jun-16 21:00N 54°35' E 010°54'153.1
2019-Jun-16 21:00N 54°36' E 010°54'3 6.4 100 / 61020.7 16.9 15.8
2019-Jun-16 20:30N 54°34' E 010°59'611.7
2019-Jun-16 20:00N 54°33' E 011°09'3221.1
2019-Jun-16 20:00N 54°36' E 011°12'4 7.5 150 / 51020.6 16.7 15.7
2019-Jun-16 19:30N 54°33' E 011°08'2 4.3
2019-Jun-16 19:00N 54°34' E 011°05'2104.2
2019-Jun-16 19:00N 54°36' E 011°06'1 2.1 130 / 111020.2 17.0 15.3
2019-Jun-16 18:30N 54°37' E 011°07'0 0.2
2019-Jun-16 18:00N 54°37' E 011°07'160.1
2019-Jun-16 18:00N 54°36' E 011°06'0 0.4 150 / 111020.3 16.9 16.0
2019-Jun-16 17:30N 54°36' E 011°06'2 3.1
2019-Jun-16 17:00N 54°34' E 011°05'2113.9
2019-Jun-16 17:00N 54°36' E 011°06'3 6.2 110 / 71020.2 18.2 14.4
2019-Jun-16 16:31N 54°33' E 011°05'5 9.7
2019-Jun-16 16:00N 54°33' E 011°13'3164.2
2019-Jun-16 16:00N 54°30' E 011°12'3 6.9 130 / 71020.3 16.9 15.0
2019-Jun-16 15:30N 54°33' E 011°10'2 4.6
2019-Jun-16 15:00N 54°34' E 011°06'2152.4
2019-Jun-16 15:00N 54°36' E 011°06'3 5.9 020 / 11020.4 18.2 15.7
2019-Jun-16 14:30N 54°34' E 011°02'1 1.6
2019-Jun-16 14:00N 54°35' E 011°01'2100.2
2019-Jun-16 14:00N 54°36' E 011°00'3 7.0 1020.8 17.5 14.8
2019-Jun-16 13:30N 54°34' E 011°05'2 4.5
2019-Jun-16 13:00N 54°33' E 011°08'3192.2
2019-Jun-16 13:00N 54°36' E 011°06'5 9.9 300 / 51020.6 17.2 15.3
2019-Jun-16 12:30N 54°33' E 011°12'1 2.1
2019-Jun-16 12:00N 54°33' E 011°11'3194.3
2019-Jun-16 12:00N 54°36' E 011°12'4 7.6 280 / 51020.2 19.9 15.3
2019-Jun-16 11:30N 54°34' E 011°07'2 4.5
2019-Jun-16 11:00N 54°34' E 011°03'2151.3
2019-Jun-16 11:00N 54°36' E 011°06'4 8.4 270 / 71019.7 18.7 14.9
2019-Jun-16 10:30N 54°35' E 010°59'1 1.2
2019-Jun-16 10:00N 54°35' E 010°58'2111.6
2019-Jun-16 10:00N 54°36' E 011°00'2 4.5 250 / 111019.6 15.7 14.6
2019-Jun-16 09:30N 54°34' E 010°57'4 8.0
2019-Jun-16 09:00N 54°34' E 010°51'3177.0
2019-Jun-16 09:00N 54°36' E 010°48'4 7.7 250 / 81019.0 16.2 15.3
2019-Jun-16 08:30N 54°33' E 010°44'4 7.8
2019-Jun-16 08:00N 54°33' E 010°37'3177.7
2019-Jun-16 08:00N 54°30' E 010°36'3 7.2 260 / 81018.7 16.2 15.7
2019-Jun-16 07:30N 54°31' E 010°30'612.3
2019-Jun-16 07:00N 54°29' E 010°21'2143.3
2019-Jun-16 07:00N 54°30' E 010°24'815.6 250 / 61018.6 15.2 14.9
2019-Jun-16 06:30N 54°25' E 010°14'611.1
2019-Jun-16 06:00N 54°20' E 010°10'3174.2
2019-Jun-16 06:00N 54°18' E 010°12'3 5.2 240 / 51018.3 16.0 15.2
2019-Jun-16 05:30N 54°20' E 010°09'0 0.0
2019-Jun-16 05:00N 54°20' E 010°09'3164.1
2019-Jun-16 05:00N 54°18' E 010°12'3 5.2 240 / 51017.6 14.7 15.4
2019-Jun-16 04:30N 54°20' E 010°09'  

Dump ship's entire track history